Sendai Airport
RJSS : now visible

Airfield :











YOU CAN JOIN US ON...

 
LOGIN :

Register | Disclaimer

   EN    FR    IT 

 









Legend :    VFR   Marginal VFR   IFR   Intensive IFR   Very Intensive IFR
Visi :
Ceiling :
>= 8 km
>= 3000ft
5 to 8 km
1000 to 3000 ft
1500m to 5 km
500 to 1000 ft
800 to 1500m
200 to 500 ft
< 800m
< 200 ft
Symbols :   Thunderstorms  Fog  Heavy snow  Heavy precipitations  Wind > 20 kt







- Airport Elevation : 15 ft
- IATA code : SDJ


RJSS - Sendai

CURRENT METAR :
  • 230200Z 35004KT 310V020 9999 FEW007 SCT050 BKN/// 27/22 Q1003

EXPIRED METARs :
  • 230126Z 01003KT 320V070 9999 FEW007 SCT009 BKN010 26/23 Q1003 RMK 1ST007 4ST009 5ST010 A2963
  • 230100Z 33004KT 290V010 9999 FEW006 BKN009 25/23 Q1003
  • 230000Z 31005KT 9999 FEW003 SCT005 BKN006 24/23 Q1003
  • 222348Z 31006KT 9999 FEW003 SCT005 BKN006 24/23 Q1003 RMK 1ST003 4ST005 6ST006 A2964

TAF TAF RJSS
Valid from the 23 at 00:00 until the 24 at 06:00 UTC


222312Z 2300/2406 20005KT 9999 FEW020 SCT030
TEMPO 2300/2301 4000 SHRA BR FEW003 BKN005 BKN008
TEMPO 2301/2303 FEW003 BKN005 BKN008
No reported NOTAMs for that airfield.



MET'MAP, your aeronautical weather chart ! - Copyright ORBIFLY December 2007 - Disclaimer

ORBIFLY MET'MAP TEAM :

Programming & Development : Alexandra Zaïnal
Concept & Development : Baudouin d'Aumeries
Co-Development & Prog : Marc-Olivier Méhu
Technical & hardware support : Manuel Goepfert

Contact : metmap@orbifly.com




SOURCES & CREDITS :

   NOAA       Earth
Advisory